sensor_id;sensor_type;location;lat;lon;timestamp;P1;durP1;ratioP1;P2;durP2;ratioP2
9364;SDS011;4722;49.340;9.800;2024-03-08T00:01:55;21.75;;;9.60;;
9364;SDS011;4722;49.340;9.800;2024-03-08T00:04:21;21.27;;;10.00;;
9364;SDS011;4722;49.340;9.800;2024-03-08T00:06:47;19.25;;;7.95;;
9364;SDS011;4722;49.340;9.800;2024-03-08T00:09:13;17.33;;;7.63;;
9364;SDS011;4722;49.340;9.800;2024-03-08T00:11:39;26.17;;;9.43;;
9364;SDS011;4722;49.340;9.800;2024-03-08T00:14:05;19.05;;;9.02;;
9364;SDS011;4722;49.340;9.800;2024-03-08T00:16:32;20.67;;;8.88;;
9364;SDS011;4722;49.340;9.800;2024-03-08T00:18:58;19.25;;;8.70;;
9364;SDS011;4722;49.340;9.800;2024-03-08T00:21:24;19.65;;;8.73;;
9364;SDS011;4722;49.340;9.800;2024-03-08T00:23:51;24.42;;;8.95;;
9364;SDS011;4722;49.340;9.800;2024-03-08T00:26:19;18.17;;;8.38;;
9364;SDS011;4722;49.340;9.800;2024-03-08T00:28:47;23.77;;;9.20;;
9364;SDS011;4722;49.340;9.800;2024-03-08T00:31:14;18.30;;;8.27;;
9364;SDS011;4722;49.340;9.800;2024-03-08T00:33:43;22.42;;;9.48;;
9364;SDS011;4722;49.340;9.800;2024-03-08T00:36:09;20.48;;;8.98;;
9364;SDS011;4722;49.340;9.800;2024-03-08T00:38:34;25.52;;;8.63;;
9364;SDS011;4722;49.340;9.800;2024-03-08T00:41:00;23.73;;;10.60;;
9364;SDS011;4722;49.340;9.800;2024-03-08T00:43:27;24.98;;;10.98;;
9364;SDS011;4722;49.340;9.800;2024-03-08T00:45:53;23.73;;;9.43;;
9364;SDS011;4722;49.340;9.800;2024-03-08T00:48:19;23.98;;;9.00;;
9364;SDS011;4722;49.340;9.800;2024-03-08T00:50:45;22.05;;;8.57;;
9364;SDS011;4722;49.340;9.800;2024-03-08T00:53:11;18.65;;;9.02;;
9364;SDS011;4722;49.340;9.800;2024-03-08T00:55:37;18.42;;;8.65;;
9364;SDS011;4722;49.340;9.800;2024-03-08T00:58:04;33.80;;;11.48;;
9364;SDS011;4722;49.340;9.800;2024-03-08T01:00:30;26.35;;;9.18;;
9364;SDS011;4722;49.340;9.800;2024-03-08T01:02:56;19.75;;;7.35;;
9364;SDS011;4722;49.340;9.800;2024-03-08T01:05:22;31.75;;;11.00;;
9364;SDS011;4722;49.340;9.800;2024-03-08T01:07:49;26.40;;;9.85;;
9364;SDS011;4722;49.340;9.800;2024-03-08T01:10:15;24.17;;;10.25;;
9364;SDS011;4722;49.340;9.800;2024-03-08T01:12:41;24.30;;;10.20;;
9364;SDS011;4722;49.340;9.800;2024-03-08T01:15:10;19.77;;;8.20;;
9364;SDS011;4722;49.340;9.800;2024-03-08T01:17:36;17.33;;;8.65;;
9364;SDS011;4722;49.340;9.800;2024-03-08T01:20:03;28.80;;;9.18;;
9364;SDS011;4722;49.340;9.800;2024-03-08T01:22:29;19.05;;;8.07;;
9364;SDS011;4722;49.340;9.800;2024-03-08T01:24:55;22.98;;;8.43;;
9364;SDS011;4722;49.340;9.800;2024-03-08T01:27:21;22.83;;;9.60;;
9364;SDS011;4722;49.340;9.800;2024-03-08T01:29:47;22.35;;;9.93;;
9364;SDS011;4722;49.340;9.800;2024-03-08T01:32:13;21.75;;;9.13;;
9364;SDS011;4722;49.340;9.800;2024-03-08T01:34:40;23.05;;;10.13;;
9364;SDS011;4722;49.340;9.800;2024-03-08T01:37:05;27.52;;;10.45;;
9364;SDS011;4722;49.340;9.800;2024-03-08T01:39:32;24.92;;;9.57;;
9364;SDS011;4722;49.340;9.800;2024-03-08T01:41:58;19.23;;;9.18;;
9364;SDS011;4722;49.340;9.800;2024-03-08T01:44:24;25.23;;;8.13;;
9364;SDS011;4722;49.340;9.800;2024-03-08T01:46:50;18.50;;;8.55;;
9364;SDS011;4722;49.340;9.800;2024-03-08T01:49:18;19.25;;;7.90;;
9364;SDS011;4722;49.340;9.800;2024-03-08T01:51:45;19.98;;;9.30;;
9364;SDS011;4722;49.340;9.800;2024-03-08T01:54:11;26.95;;;9.10;;
9364;SDS011;4722;49.340;9.800;2024-03-08T01:56:40;19.00;;;8.90;;
9364;SDS011;4722;49.340;9.800;2024-03-08T01:59:06;23.60;;;8.13;;
9364;SDS011;4722;49.340;9.800;2024-03-08T02:01:32;22.98;;;10.57;;
9364;SDS011;4722;49.340;9.800;2024-03-08T02:03:59;18.52;;;8.88;;
9364;SDS011;4722;49.340;9.800;2024-03-08T02:06:25;17.23;;;9.13;;
9364;SDS011;4722;49.340;9.800;2024-03-08T02:08:51;13.88;;;7.93;;
9364;SDS011;4722;49.340;9.800;2024-03-08T02:11:18;14.50;;;8.20;;
9364;SDS011;4722;49.340;9.800;2024-03-08T02:13:45;26.70;;;9.93;;
9364;SDS011;4722;49.340;9.800;2024-03-08T02:16:11;22.88;;;9.48;;
9364;SDS011;4722;49.340;9.800;2024-03-08T02:18:37;15.60;;;8.38;;
9364;SDS011;4722;49.340;9.800;2024-03-08T02:21:04;15.48;;;7.07;;
9364;SDS011;4722;49.340;9.800;2024-03-08T02:23:30;14.32;;;6.95;;
9364;SDS011;4722;49.340;9.800;2024-03-08T02:25:57;24.38;;;10.07;;
9364;SDS011;4722;49.340;9.800;2024-03-08T02:28:23;22.00;;;7.93;;
9364;SDS011;4722;49.340;9.800;2024-03-08T02:30:54;21.73;;;8.85;;
9364;SDS011;4722;49.340;9.800;2024-03-08T02:33:20;22.08;;;9.02;;
9364;SDS011;4722;49.340;9.800;2024-03-08T02:35:47;18.05;;;9.13;;
9364;SDS011;4722;49.340;9.800;2024-03-08T02:38:17;20.48;;;8.90;;
9364;SDS011;4722;49.340;9.800;2024-03-08T02:40:43;17.55;;;8.10;;
9364;SDS011;4722;49.340;9.800;2024-03-08T02:43:10;18.92;;;8.48;;
9364;SDS011;4722;49.340;9.800;2024-03-08T02:45:36;20.60;;;9.30;;
9364;SDS011;4722;49.340;9.800;2024-03-08T02:48:02;20.27;;;10.10;;
9364;SDS011;4722;49.340;9.800;2024-03-08T02:50:28;22.85;;;9.38;;
9364;SDS011;4722;49.340;9.800;2024-03-08T02:52:54;21.13;;;10.23;;
9364;SDS011;4722;49.340;9.800;2024-03-08T02:55:20;19.80;;;9.43;;
9364;SDS011;4722;49.340;9.800;2024-03-08T02:57:46;26.05;;;10.73;;
9364;SDS011;4722;49.340;9.800;2024-03-08T03:00:12;29.90;;;11.10;;
9364;SDS011;4722;49.340;9.800;2024-03-08T03:02:38;24.25;;;11.13;;
9364;SDS011;4722;49.340;9.800;2024-03-08T03:05:05;35.28;;;10.75;;
9364;SDS011;4722;49.340;9.800;2024-03-08T03:07:34;23.73;;;8.98;;
9364;SDS011;4722;49.340;9.800;2024-03-08T03:10:00;23.75;;;10.43;;
9364;SDS011;4722;49.340;9.800;2024-03-08T03:12:29;26.33;;;9.82;;
9364;SDS011;4722;49.340;9.800;2024-03-08T03:14:56;23.80;;;9.80;;
9364;SDS011;4722;49.340;9.800;2024-03-08T03:17:22;21.02;;;9.18;;
9364;SDS011;4722;49.340;9.800;2024-03-08T03:19:49;16.23;;;8.93;;
9364;SDS011;4722;49.340;9.800;2024-03-08T03:22:15;19.75;;;10.55;;
9364;SDS011;4722;49.340;9.800;2024-03-08T03:24:41;23.67;;;9.85;;
9364;SDS011;4722;49.340;9.800;2024-03-08T03:27:07;33.40;;;11.98;;
9364;SDS011;4722;49.340;9.800;2024-03-08T03:29:39;27.92;;;10.02;;
9364;SDS011;4722;49.340;9.800;2024-03-08T03:32:07;19.27;;;8.35;;
9364;SDS011;4722;49.340;9.800;2024-03-08T03:34:33;18.48;;;8.48;;
9364;SDS011;4722;49.340;9.800;2024-03-08T03:37:03;22.77;;;8.98;;
9364;SDS011;4722;49.340;9.800;2024-03-08T03:39:29;19.42;;;8.82;;
9364;SDS011;4722;49.340;9.800;2024-03-08T03:41:57;20.48;;;9.88;;
9364;SDS011;4722;49.340;9.800;2024-03-08T03:44:23;26.70;;;10.02;;
9364;SDS011;4722;49.340;9.800;2024-03-08T03:46:49;18.30;;;7.93;;
9364;SDS011;4722;49.340;9.800;2024-03-08T03:49:18;21.63;;;9.77;;
9364;SDS011;4722;49.340;9.800;2024-03-08T03:51:44;21.23;;;8.32;;
9364;SDS011;4722;49.340;9.800;2024-03-08T03:54:10;21.20;;;10.00;;
9364;SDS011;4722;49.340;9.800;2024-03-08T03:56:37;13.98;;;7.68;;
9364;SDS011;4722;49.340;9.800;2024-03-08T03:59:04;21.73;;;7.60;;
9364;SDS011;4722;49.340;9.800;2024-03-08T04:01:31;21.10;;;9.40;;
9364;SDS011;4722;49.340;9.800;2024-03-08T04:03:57;20.20;;;10.25;;
9364;SDS011;4722;49.340;9.800;2024-03-08T04:06:23;22.40;;;11.48;;
9364;SDS011;4722;49.340;9.800;2024-03-08T04:08:49;21.65;;;7.63;;
9364;SDS011;4722;49.340;9.800;2024-03-08T04:11:15;23.30;;;9.93;;
9364;SDS011;4722;49.340;9.800;2024-03-08T04:13:42;21.77;;;8.73;;
9364;SDS011;4722;49.340;9.800;2024-03-08T04:16:08;26.10;;;10.02;;
9364;SDS011;4722;49.340;9.800;2024-03-08T04:18:36;19.98;;;9.32;;
9364;SDS011;4722;49.340;9.800;2024-03-08T04:21:02;20.83;;;9.40;;
9364;SDS011;4722;49.340;9.800;2024-03-08T04:23:31;19.33;;;10.10;;
9364;SDS011;4722;49.340;9.800;2024-03-08T04:25:57;19.15;;;10.63;;
9364;SDS011;4722;49.340;9.800;2024-03-08T04:28:23;21.80;;;8.50;;
9364;SDS011;4722;49.340;9.800;2024-03-08T04:30:50;25.98;;;11.30;;
9364;SDS011;4722;49.340;9.800;2024-03-08T04:33:16;27.42;;;10.68;;
9364;SDS011;4722;49.340;9.800;2024-03-08T04:35:43;18.95;;;9.40;;
9364;SDS011;4722;49.340;9.800;2024-03-08T04:38:11;26.25;;;11.73;;
9364;SDS011;4722;49.340;9.800;2024-03-08T04:40:36;23.58;;;10.80;;
9364;SDS011;4722;49.340;9.800;2024-03-08T04:43:02;28.20;;;10.75;;
9364;SDS011;4722;49.340;9.800;2024-03-08T04:45:28;21.17;;;10.30;;
9364;SDS011;4722;49.340;9.800;2024-03-08T04:47:54;21.45;;;11.48;;
9364;SDS011;4722;49.340;9.800;2024-03-08T04:50:21;35.10;;;12.65;;
9364;SDS011;4722;49.340;9.800;2024-03-08T04:52:48;24.10;;;10.68;;
9364;SDS011;4722;49.340;9.800;2024-03-08T04:55:14;24.65;;;10.85;;
9364;SDS011;4722;49.340;9.800;2024-03-08T04:57:40;25.08;;;11.25;;
9364;SDS011;4722;49.340;9.800;2024-03-08T05:00:09;16.65;;;9.50;;
9364;SDS011;4722;49.340;9.800;2024-03-08T05:02:36;20.70;;;9.45;;
9364;SDS011;4722;49.340;9.800;2024-03-08T05:05:04;24.85;;;11.82;;
9364;SDS011;4722;49.340;9.800;2024-03-08T05:07:31;26.52;;;10.68;;
9364;SDS011;4722;49.340;9.800;2024-03-08T05:09:58;25.27;;;11.88;;
9364;SDS011;4722;49.340;9.800;2024-03-08T05:12:24;23.50;;;9.73;;
9364;SDS011;4722;49.340;9.800;2024-03-08T05:14:50;20.92;;;10.00;;
9364;SDS011;4722;49.340;9.800;2024-03-08T05:17:16;19.77;;;8.85;;
9364;SDS011;4722;49.340;9.800;2024-03-08T05:19:42;22.42;;;11.18;;
9364;SDS011;4722;49.340;9.800;2024-03-08T05:22:08;27.85;;;12.23;;
9364;SDS011;4722;49.340;9.800;2024-03-08T05:24:34;33.67;;;13.95;;
9364;SDS011;4722;49.340;9.800;2024-03-08T05:27:00;33.20;;;14.48;;
9364;SDS011;4722;49.340;9.800;2024-03-08T05:29:27;37.08;;;14.32;;
9364;SDS011;4722;49.340;9.800;2024-03-08T05:31:53;32.83;;;14.45;;
9364;SDS011;4722;49.340;9.800;2024-03-08T05:34:20;33.92;;;11.65;;
9364;SDS011;4722;49.340;9.800;2024-03-08T05:36:46;20.50;;;11.27;;
9364;SDS011;4722;49.340;9.800;2024-03-08T05:39:14;29.33;;;12.02;;
9364;SDS011;4722;49.340;9.800;2024-03-08T05:41:40;30.30;;;10.63;;
9364;SDS011;4722;49.340;9.800;2024-03-08T05:44:06;20.95;;;10.70;;
9364;SDS011;4722;49.340;9.800;2024-03-08T05:46:33;27.33;;;11.52;;
9364;SDS011;4722;49.340;9.800;2024-03-08T05:48:59;23.63;;;11.07;;
9364;SDS011;4722;49.340;9.800;2024-03-08T05:51:30;23.60;;;11.32;;
9364;SDS011;4722;49.340;9.800;2024-03-08T05:53:56;30.05;;;13.45;;
9364;SDS011;4722;49.340;9.800;2024-03-08T05:56:23;33.38;;;12.07;;
9364;SDS011;4722;49.340;9.800;2024-03-08T05:58:49;28.45;;;10.95;;
9364;SDS011;4722;49.340;9.800;2024-03-08T06:01:15;21.35;;;11.80;;
9364;SDS011;4722;49.340;9.800;2024-03-08T06:03:41;30.48;;;11.68;;
9364;SDS011;4722;49.340;9.800;2024-03-08T06:06:13;22.77;;;11.18;;
9364;SDS011;4722;49.340;9.800;2024-03-08T06:08:39;27.00;;;11.23;;
9364;SDS011;4722;49.340;9.800;2024-03-08T06:11:05;33.42;;;11.68;;
9364;SDS011;4722;49.340;9.800;2024-03-08T06:13:34;20.73;;;10.15;;
9364;SDS011;4722;49.340;9.800;2024-03-08T06:16:03;24.80;;;10.93;;
9364;SDS011;4722;49.340;9.800;2024-03-08T06:18:30;27.55;;;11.02;;
9364;SDS011;4722;49.340;9.800;2024-03-08T06:20:56;24.55;;;11.25;;
9364;SDS011;4722;49.340;9.800;2024-03-08T06:23:22;25.42;;;11.27;;
9364;SDS011;4722;49.340;9.800;2024-03-08T06:25:48;28.35;;;13.50;;
9364;SDS011;4722;49.340;9.800;2024-03-08T06:28:14;29.02;;;13.80;;
9364;SDS011;4722;49.340;9.800;2024-03-08T06:30:40;24.85;;;12.77;;
9364;SDS011;4722;49.340;9.800;2024-03-08T06:33:07;37.72;;;14.13;;
9364;SDS011;4722;49.340;9.800;2024-03-08T06:35:33;32.40;;;13.55;;
9364;SDS011;4722;49.340;9.800;2024-03-08T06:38:00;54.92;;;21.08;;
9364;SDS011;4722;49.340;9.800;2024-03-08T06:40:25;35.53;;;16.40;;
9364;SDS011;4722;49.340;9.800;2024-03-08T06:42:51;27.23;;;13.18;;
9364;SDS011;4722;49.340;9.800;2024-03-08T06:45:18;26.25;;;12.18;;
9364;SDS011;4722;49.340;9.800;2024-03-08T06:47:46;32.28;;;14.93;;
9364;SDS011;4722;49.340;9.800;2024-03-08T06:50:12;32.55;;;12.20;;
9364;SDS011;4722;49.340;9.800;2024-03-08T06:52:40;25.52;;;12.57;;
9364;SDS011;4722;49.340;9.800;2024-03-08T06:55:07;27.77;;;12.65;;
9364;SDS011;4722;49.340;9.800;2024-03-08T06:57:36;28.83;;;13.75;;
9364;SDS011;4722;49.340;9.800;2024-03-08T07:00:04;21.52;;;10.40;;
9364;SDS011;4722;49.340;9.800;2024-03-08T07:02:30;29.95;;;12.10;;
9364;SDS011;4722;49.340;9.800;2024-03-08T07:04:57;25.42;;;11.88;;
9364;SDS011;4722;49.340;9.800;2024-03-08T07:07:23;23.80;;;10.23;;
9364;SDS011;4722;49.340;9.800;2024-03-08T07:09:49;24.40;;;13.15;;
9364;SDS011;4722;49.340;9.800;2024-03-08T07:12:15;29.70;;;12.18;;
9364;SDS011;4722;49.340;9.800;2024-03-08T07:14:42;31.40;;;13.68;;
9364;SDS011;4722;49.340;9.800;2024-03-08T07:17:10;27.05;;;11.93;;
9364;SDS011;4722;49.340;9.800;2024-03-08T07:19:36;29.13;;;11.88;;
9364;SDS011;4722;49.340;9.800;2024-03-08T07:22:03;23.67;;;11.82;;
9364;SDS011;4722;49.340;9.800;2024-03-08T07:24:29;32.13;;;13.80;;
9364;SDS011;4722;49.340;9.800;2024-03-08T07:27:05;25.50;;;10.77;;
9364;SDS011;4722;49.340;9.800;2024-03-08T07:29:32;21.55;;;10.57;;
9364;SDS011;4722;49.340;9.800;2024-03-08T07:31:59;22.98;;;9.70;;
9364;SDS011;4722;49.340;9.800;2024-03-08T07:34:28;23.13;;;11.07;;
9364;SDS011;4722;49.340;9.800;2024-03-08T07:36:58;36.55;;;11.43;;
9364;SDS011;4722;49.340;9.800;2024-03-08T07:39:24;26.70;;;11.85;;
9364;SDS011;4722;49.340;9.800;2024-03-08T07:41:50;31.02;;;11.07;;
9364;SDS011;4722;49.340;9.800;2024-03-08T07:44:17;24.23;;;10.88;;
9364;SDS011;4722;49.340;9.800;2024-03-08T07:46:44;24.50;;;11.20;;
9364;SDS011;4722;49.340;9.800;2024-03-08T07:49:09;23.63;;;9.77;;
9364;SDS011;4722;49.340;9.800;2024-03-08T07:51:37;31.20;;;10.38;;
9364;SDS011;4722;49.340;9.800;2024-03-08T07:54:03;16.92;;;9.13;;
9364;SDS011;4722;49.340;9.800;2024-03-08T07:56:34;22.08;;;9.05;;
9364;SDS011;4722;49.340;9.800;2024-03-08T07:59:01;19.95;;;9.45;;
9364;SDS011;4722;49.340;9.800;2024-03-08T08:01:28;20.63;;;9.43;;
9364;SDS011;4722;49.340;9.800;2024-03-08T08:03:55;18.17;;;8.88;;
9364;SDS011;4722;49.340;9.800;2024-03-08T08:06:21;13.75;;;7.40;;
9364;SDS011;4722;49.340;9.800;2024-03-08T08:08:47;26.33;;;10.23;;
9364;SDS011;4722;49.340;9.800;2024-03-08T08:11:13;19.77;;;10.13;;
9364;SDS011;4722;49.340;9.800;2024-03-08T08:13:42;21.45;;;9.02;;
9364;SDS011;4722;49.340;9.800;2024-03-08T08:16:09;23.48;;;10.35;;
9364;SDS011;4722;49.340;9.800;2024-03-08T08:18:35;25.95;;;9.73;;
9364;SDS011;4722;49.340;9.800;2024-03-08T08:21:02;24.13;;;9.23;;
9364;SDS011;4722;49.340;9.800;2024-03-08T08:23:28;20.17;;;8.13;;
9364;SDS011;4722;49.340;9.800;2024-03-08T08:25:57;20.77;;;8.05;;
9364;SDS011;4722;49.340;9.800;2024-03-08T08:28:23;20.23;;;8.30;;
9364;SDS011;4722;49.340;9.800;2024-03-08T08:30:49;19.95;;;9.13;;
9364;SDS011;4722;49.340;9.800;2024-03-08T08:33:15;22.00;;;8.45;;
9364;SDS011;4722;49.340;9.800;2024-03-08T08:35:41;23.75;;;9.38;;
9364;SDS011;4722;49.340;9.800;2024-03-08T08:38:07;22.45;;;8.15;;
9364;SDS011;4722;49.340;9.800;2024-03-08T08:40:34;17.30;;;9.13;;
9364;SDS011;4722;49.340;9.800;2024-03-08T08:43:01;17.13;;;8.02;;
9364;SDS011;4722;49.340;9.800;2024-03-08T08:45:29;20.95;;;8.23;;
9364;SDS011;4722;49.340;9.800;2024-03-08T08:47:55;20.77;;;8.60;;
9364;SDS011;4722;49.340;9.800;2024-03-08T08:50:21;19.95;;;8.15;;
9364;SDS011;4722;49.340;9.800;2024-03-08T08:52:51;22.45;;;7.88;;
9364;SDS011;4722;49.340;9.800;2024-03-08T08:55:18;21.20;;;8.27;;
9364;SDS011;4722;49.340;9.800;2024-03-08T08:57:48;15.10;;;6.65;;
9364;SDS011;4722;49.340;9.800;2024-03-08T09:00:15;17.85;;;7.45;;
9364;SDS011;4722;49.340;9.800;2024-03-08T09:02:41;17.00;;;7.07;;
9364;SDS011;4722;49.340;9.800;2024-03-08T09:05:08;14.25;;;6.68;;
9364;SDS011;4722;49.340;9.800;2024-03-08T09:07:34;17.98;;;7.60;;
9364;SDS011;4722;49.340;9.800;2024-03-08T09:10:00;16.17;;;7.10;;
9364;SDS011;4722;49.340;9.800;2024-03-08T09:12:26;17.83;;;7.30;;
9364;SDS011;4722;49.340;9.800;2024-03-08T09:14:52;22.15;;;7.53;;
9364;SDS011;4722;49.340;9.800;2024-03-08T09:17:18;19.70;;;8.63;;
9364;SDS011;4722;49.340;9.800;2024-03-08T09:19:47;17.65;;;6.65;;
9364;SDS011;4722;49.340;9.800;2024-03-08T09:22:13;18.73;;;8.18;;
9364;SDS011;4722;49.340;9.800;2024-03-08T09:24:39;17.42;;;7.05;;
9364;SDS011;4722;49.340;9.800;2024-03-08T09:27:05;18.42;;;7.22;;
9364;SDS011;4722;49.340;9.800;2024-03-08T09:29:31;19.58;;;8.27;;
9364;SDS011;4722;49.340;9.800;2024-03-08T09:31:57;17.42;;;7.05;;
9364;SDS011;4722;49.340;9.800;2024-03-08T09:34:23;20.13;;;7.53;;
9364;SDS011;4722;49.340;9.800;2024-03-08T09:36:49;12.50;;;6.40;;
9364;SDS011;4722;49.340;9.800;2024-03-08T09:39:17;17.50;;;7.40;;
9364;SDS011;4722;49.340;9.800;2024-03-08T09:41:45;19.95;;;8.52;;
9364;SDS011;4722;49.340;9.800;2024-03-08T09:44:14;15.40;;;6.88;;
9364;SDS011;4722;49.340;9.800;2024-03-08T09:46:40;19.25;;;8.05;;
9364;SDS011;4722;49.340;9.800;2024-03-08T09:49:06;14.82;;;7.20;;
9364;SDS011;4722;49.340;9.800;2024-03-08T09:51:33;21.38;;;8.40;;
9364;SDS011;4722;49.340;9.800;2024-03-08T09:54:03;20.20;;;8.23;;
9364;SDS011;4722;49.340;9.800;2024-03-08T09:56:29;21.25;;;7.95;;
9364;SDS011;4722;49.340;9.800;2024-03-08T09:58:57;21.45;;;7.95;;
9364;SDS011;4722;49.340;9.800;2024-03-08T10:01:39;20.90;;;8.23;;
9364;SDS011;4722;49.340;9.800;2024-03-08T10:04:05;19.73;;;8.68;;
9364;SDS011;4722;49.340;9.800;2024-03-08T10:06:31;21.17;;;8.18;;
9364;SDS011;4722;49.340;9.800;2024-03-08T10:08:57;18.13;;;7.05;;
9364;SDS011;4722;49.340;9.800;2024-03-08T10:11:25;21.02;;;9.07;;
9364;SDS011;4722;49.340;9.800;2024-03-08T10:13:51;20.92;;;7.82;;
9364;SDS011;4722;49.340;9.800;2024-03-08T10:16:18;19.38;;;8.52;;
9364;SDS011;4722;49.340;9.800;2024-03-08T10:18:47;16.10;;;6.97;;
9364;SDS011;4722;49.340;9.800;2024-03-08T10:21:12;19.30;;;8.05;;
9364;SDS011;4722;49.340;9.800;2024-03-08T10:23:40;19.13;;;8.20;;
9364;SDS011;4722;49.340;9.800;2024-03-08T10:26:17;16.70;;;7.57;;
9364;SDS011;4722;49.340;9.800;2024-03-08T10:28:46;16.08;;;7.20;;
9364;SDS011;4722;49.340;9.800;2024-03-08T10:31:15;20.65;;;8.07;;
9364;SDS011;4722;49.340;9.800;2024-03-08T10:33:42;21.33;;;6.78;;
9364;SDS011;4722;49.340;9.800;2024-03-08T10:36:09;18.40;;;6.53;;
9364;SDS011;4722;49.340;9.800;2024-03-08T10:38:39;13.23;;;6.68;;
9364;SDS011;4722;49.340;9.800;2024-03-08T10:41:05;15.20;;;7.03;;
9364;SDS011;4722;49.340;9.800;2024-03-08T10:43:33;19.45;;;7.13;;
9364;SDS011;4722;49.340;9.800;2024-03-08T10:48:51;15.10;;;6.90;;
9364;SDS011;4722;49.340;9.800;2024-03-08T10:51:18;13.65;;;6.43;;
9364;SDS011;4722;49.340;9.800;2024-03-08T10:53:45;18.40;;;6.78;;
9364;SDS011;4722;49.340;9.800;2024-03-08T10:56:13;16.38;;;6.38;;
9364;SDS011;4722;49.340;9.800;2024-03-08T10:58:39;19.48;;;7.57;;
9364;SDS011;4722;49.340;9.800;2024-03-08T11:01:06;20.40;;;7.10;;
9364;SDS011;4722;49.340;9.800;2024-03-08T11:06:14;16.52;;;7.57;;
9364;SDS011;4722;49.340;9.800;2024-03-08T11:08:41;17.30;;;7.55;;
9364;SDS011;4722;49.340;9.800;2024-03-08T11:11:23;15.50;;;7.63;;
9364;SDS011;4722;49.340;9.800;2024-03-08T11:13:52;20.13;;;6.20;;
9364;SDS011;4722;49.340;9.800;2024-03-08T11:18:54;14.73;;;6.28;;
9364;SDS011;4722;49.340;9.800;2024-03-08T11:21:20;18.58;;;7.25;;
9364;SDS011;4722;49.340;9.800;2024-03-08T11:24:00;17.95;;;7.63;;
9364;SDS011;4722;49.340;9.800;2024-03-08T11:26:27;19.38;;;7.20;;
9364;SDS011;4722;49.340;9.800;2024-03-08T11:28:53;16.25;;;7.20;;
9364;SDS011;4722;49.340;9.800;2024-03-08T11:33:46;14.65;;;6.72;;
9364;SDS011;4722;49.340;9.800;2024-03-08T11:36:20;14.93;;;7.38;;
9364;SDS011;4722;49.340;9.800;2024-03-08T11:38:47;15.93;;;6.43;;
9364;SDS011;4722;49.340;9.800;2024-03-08T11:41:17;15.48;;;6.90;;
9364;SDS011;4722;49.340;9.800;2024-03-08T11:43:44;16.45;;;6.57;;
9364;SDS011;4722;49.340;9.800;2024-03-08T11:46:10;16.38;;;6.85;;
9364;SDS011;4722;49.340;9.800;2024-03-08T11:48:40;16.60;;;6.38;;
9364;SDS011;4722;49.340;9.800;2024-03-08T11:51:07;11.23;;;5.82;;
9364;SDS011;4722;49.340;9.800;2024-03-08T11:53:33;15.05;;;6.72;;
9364;SDS011;4722;49.340;9.800;2024-03-08T11:56:08;15.05;;;6.25;;
9364;SDS011;4722;49.340;9.800;2024-03-08T11:58:34;12.85;;;5.93;;
9364;SDS011;4722;49.340;9.800;2024-03-08T12:01:10;16.30;;;5.85;;
9364;SDS011;4722;49.340;9.800;2024-03-08T12:03:41;16.50;;;6.63;;
9364;SDS011;4722;49.340;9.800;2024-03-08T12:06:08;15.70;;;6.18;;
9364;SDS011;4722;49.340;9.800;2024-03-08T12:08:37;12.95;;;5.88;;
9364;SDS011;4722;49.340;9.800;2024-03-08T12:11:06;14.05;;;6.05;;
9364;SDS011;4722;49.340;9.800;2024-03-08T12:13:35;18.90;;;7.82;;
9364;SDS011;4722;49.340;9.800;2024-03-08T12:16:04;16.10;;;6.22;;
9364;SDS011;4722;49.340;9.800;2024-03-08T12:18:37;17.05;;;6.57;;
9364;SDS011;4722;49.340;9.800;2024-03-08T12:21:07;18.85;;;6.80;;
9364;SDS011;4722;49.340;9.800;2024-03-08T12:23:33;16.70;;;5.75;;
9364;SDS011;4722;49.340;9.800;2024-03-08T12:26:09;14.13;;;6.72;;
9364;SDS011;4722;49.340;9.800;2024-03-08T12:28:38;18.00;;;6.82;;
9364;SDS011;4722;49.340;9.800;2024-03-08T12:31:06;15.55;;;7.13;;
9364;SDS011;4722;49.340;9.800;2024-03-08T12:33:37;16.08;;;6.55;;
9364;SDS011;4722;49.340;9.800;2024-03-08T12:36:03;18.73;;;7.07;;
9364;SDS011;4722;49.340;9.800;2024-03-08T12:38:32;12.88;;;6.40;;
9364;SDS011;4722;49.340;9.800;2024-03-08T12:41:00;13.55;;;6.10;;
9364;SDS011;4722;49.340;9.800;2024-03-08T12:43:26;16.38;;;6.63;;
9364;SDS011;4722;49.340;9.800;2024-03-08T12:45:55;14.65;;;6.20;;
9364;SDS011;4722;49.340;9.800;2024-03-08T12:48:21;14.63;;;6.55;;
9364;SDS011;4722;49.340;9.800;2024-03-08T12:50:47;19.30;;;7.82;;
9364;SDS011;4722;49.340;9.800;2024-03-08T12:53:13;17.92;;;6.65;;
9364;SDS011;4722;49.340;9.800;2024-03-08T12:55:39;15.70;;;6.82;;
9364;SDS011;4722;49.340;9.800;2024-03-08T12:58:05;13.90;;;6.38;;
9364;SDS011;4722;49.340;9.800;2024-03-08T13:00:32;13.05;;;6.85;;
9364;SDS011;4722;49.340;9.800;2024-03-08T13:03:01;16.58;;;6.68;;
9364;SDS011;4722;49.340;9.800;2024-03-08T13:05:27;15.10;;;6.70;;
9364;SDS011;4722;49.340;9.800;2024-03-08T13:07:53;16.92;;;7.50;;
9364;SDS011;4722;49.340;9.800;2024-03-08T13:10:20;15.48;;;6.25;;
9364;SDS011;4722;49.340;9.800;2024-03-08T13:12:46;18.60;;;7.00;;
9364;SDS011;4722;49.340;9.800;2024-03-08T13:15:11;15.85;;;6.78;;
9364;SDS011;4722;49.340;9.800;2024-03-08T13:17:45;16.73;;;6.28;;
9364;SDS011;4722;49.340;9.800;2024-03-08T13:20:11;14.48;;;6.13;;
9364;SDS011;4722;49.340;9.800;2024-03-08T13:22:43;20.35;;;5.80;;
9364;SDS011;4722;49.340;9.800;2024-03-08T13:25:09;16.42;;;6.13;;
9364;SDS011;4722;49.340;9.800;2024-03-08T13:27:41;14.25;;;6.00;;
9364;SDS011;4722;49.340;9.800;2024-03-08T13:30:08;17.75;;;6.22;;
9364;SDS011;4722;49.340;9.800;2024-03-08T13:32:38;13.10;;;5.80;;
9364;SDS011;4722;49.340;9.800;2024-03-08T13:35:04;16.20;;;6.25;;
9364;SDS011;4722;49.340;9.800;2024-03-08T13:37:37;13.63;;;5.78;;
9364;SDS011;4722;49.340;9.800;2024-03-08T13:40:03;16.73;;;6.75;;
9364;SDS011;4722;49.340;9.800;2024-03-08T13:42:30;13.73;;;5.75;;
9364;SDS011;4722;49.340;9.800;2024-03-08T13:44:56;14.18;;;5.80;;
9364;SDS011;4722;49.340;9.800;2024-03-08T13:47:22;15.88;;;5.50;;
9364;SDS011;4722;49.340;9.800;2024-03-08T13:49:49;13.95;;;6.05;;
9364;SDS011;4722;49.340;9.800;2024-03-08T13:52:15;13.45;;;5.88;;
9364;SDS011;4722;49.340;9.800;2024-03-08T13:54:42;15.90;;;5.50;;
9364;SDS011;4722;49.340;9.800;2024-03-08T13:57:08;16.27;;;5.47;;
9364;SDS011;4722;49.340;9.800;2024-03-08T13:59:34;12.98;;;5.93;;
9364;SDS011;4722;49.340;9.800;2024-03-08T14:02:00;17.00;;;6.43;;
9364;SDS011;4722;49.340;9.800;2024-03-08T14:04:27;11.77;;;5.95;;
9364;SDS011;4722;49.340;9.800;2024-03-08T14:06:53;13.40;;;5.30;;
9364;SDS011;4722;49.340;9.800;2024-03-08T14:09:26;12.82;;;5.70;;
9364;SDS011;4722;49.340;9.800;2024-03-08T14:11:54;14.27;;;6.07;;
9364;SDS011;4722;49.340;9.800;2024-03-08T14:14:21;14.13;;;5.65;;
9364;SDS011;4722;49.340;9.800;2024-03-08T14:16:50;13.40;;;5.47;;
9364;SDS011;4722;49.340;9.800;2024-03-08T14:19:22;12.25;;;5.55;;
9364;SDS011;4722;49.340;9.800;2024-03-08T14:21:48;16.38;;;6.65;;
9364;SDS011;4722;49.340;9.800;2024-03-08T14:24:16;12.05;;;5.38;;
9364;SDS011;4722;49.340;9.800;2024-03-08T14:26:43;13.80;;;5.38;;
9364;SDS011;4722;49.340;9.800;2024-03-08T14:29:10;13.10;;;5.70;;
9364;SDS011;4722;49.340;9.800;2024-03-08T14:31:36;11.95;;;5.18;;
9364;SDS011;4722;49.340;9.800;2024-03-08T14:34:02;10.43;;;5.03;;
9364;SDS011;4722;49.340;9.800;2024-03-08T14:36:29;10.07;;;4.78;;
9364;SDS011;4722;49.340;9.800;2024-03-08T14:38:55;15.85;;;5.28;;
9364;SDS011;4722;49.340;9.800;2024-03-08T14:41:21;13.57;;;5.45;;
9364;SDS011;4722;49.340;9.800;2024-03-08T14:43:49;11.32;;;5.00;;
9364;SDS011;4722;49.340;9.800;2024-03-08T14:46:18;13.40;;;4.57;;
9364;SDS011;4722;49.340;9.800;2024-03-08T14:48:55;12.38;;;5.90;;
9364;SDS011;4722;49.340;9.800;2024-03-08T14:51:23;15.77;;;5.60;;
9364;SDS011;4722;49.340;9.800;2024-03-08T14:53:54;10.98;;;4.82;;
9364;SDS011;4722;49.340;9.800;2024-03-08T14:56:19;16.90;;;5.13;;
9364;SDS011;4722;49.340;9.800;2024-03-08T14:58:45;12.82;;;5.18;;
9364;SDS011;4722;49.340;9.800;2024-03-08T15:01:14;9.95;;;4.45;;
9364;SDS011;4722;49.340;9.800;2024-03-08T15:03:41;15.23;;;5.40;;
9364;SDS011;4722;49.340;9.800;2024-03-08T15:06:07;15.30;;;4.88;;
9364;SDS011;4722;49.340;9.800;2024-03-08T15:08:38;12.65;;;4.85;;